sensor_id;sensor_type;location;lat;lon;timestamp;pressure;altitude;pressure_sealevel;temperature;humidity
68712;BME280;55690;51.566;19.198;2024-02-14T00:00:15;102220.41;;;4.35;100.00
68712;BME280;55690;51.566;19.198;2024-02-14T00:04:22;102219.38;;;4.41;100.00
68712;BME280;55690;51.566;19.198;2024-02-14T00:08:23;102227.41;;;4.43;100.00
68712;BME280;55690;51.566;19.198;2024-02-14T00:12:25;102227.26;;;4.49;100.00
68712;BME280;55690;51.566;19.198;2024-02-14T00:16:28;102232.71;;;4.46;100.00
68712;BME280;55690;51.566;19.198;2024-02-14T00:20:31;102235.33;;;4.49;100.00
68712;BME280;55690;51.566;19.198;2024-02-14T00:24:33;102230.83;;;4.49;100.00
68712;BME280;55690;51.566;19.198;2024-02-14T00:28:38;102239.05;;;4.43;100.00
68712;BME280;55690;51.566;19.198;2024-02-14T00:32:45;102240.81;;;4.44;100.00
68712;BME280;55690;51.566;19.198;2024-02-14T00:36:51;102242.70;;;4.41;100.00
68712;BME280;55690;51.566;19.198;2024-02-14T00:40:57;102247.16;;;4.42;100.00
68712;BME280;55690;51.566;19.198;2024-02-14T00:45:06;102246.31;;;4.40;100.00
68712;BME280;55690;51.566;19.198;2024-02-14T00:49:11;102247.01;;;4.48;100.00
68712;BME280;55690;51.566;19.198;2024-02-14T00:53:16;102237.25;;;4.44;100.00
68712;BME280;55690;51.566;19.198;2024-02-14T00:57:22;102237.09;;;4.50;100.00
68712;BME280;55690;51.566;19.198;2024-02-14T01:01:28;102239.71;;;4.53;100.00
68712;BME280;55690;51.566;19.198;2024-02-14T01:05:34;102234.29;;;4.54;100.00
68712;BME280;55690;51.566;19.198;2024-02-14T01:09:40;102239.63;;;4.56;100.00
68712;BME280;55690;51.566;19.198;2024-02-14T01:13:46;102231.75;;;4.48;100.00
68712;BME280;55690;51.566;19.198;2024-02-14T01:17:53;102232.75;;;4.44;100.00
68712;BME280;55690;51.566;19.198;2024-02-14T01:21:59;102238.05;;;4.47;100.00
68712;BME280;55690;51.566;19.198;2024-02-14T01:26:13;102233.66;;;4.43;100.00
68712;BME280;55690;51.566;19.198;2024-02-14T01:30:19;102227.48;;;4.40;100.00
68712;BME280;55690;51.566;19.198;2024-02-14T01:34:25;102237.25;;;4.44;100.00
68712;BME280;55690;51.566;19.198;2024-02-14T01:38:32;102233.00;;;4.33;100.00
68712;BME280;55690;51.566;19.198;2024-02-14T01:42:38;102233.71;;;4.42;100.00
68712;BME280;55690;51.566;19.198;2024-02-14T01:46:44;102226.66;;;4.36;100.00
68712;BME280;55690;51.566;19.198;2024-02-14T01:50:50;102222.20;;;4.35;100.00
68712;BME280;55690;51.566;19.198;2024-02-14T01:54:57;102224.79;;;4.40;100.00
68712;BME280;55690;51.566;19.198;2024-02-14T01:59:02;102223.95;;;4.38;100.00
68712;BME280;55690;51.566;19.198;2024-02-14T02:03:09;102224.20;;;4.28;100.00
68712;BME280;55690;51.566;19.198;2024-02-14T02:07:15;102226.15;;;4.22;100.00
68712;BME280;55690;51.566;19.198;2024-02-14T02:11:21;102238.77;;;4.18;100.00
68712;BME280;55690;51.566;19.198;2024-02-14T02:15:27;102234.41;;;4.13;100.00
68712;BME280;55690;51.566;19.198;2024-02-14T02:19:34;102232.99;;;3.96;100.00
68712;BME280;55690;51.566;19.198;2024-02-14T02:23:40;102229.70;;;3.85;100.00
68712;BME280;55690;51.566;19.198;2024-02-14T02:27:46;102235.24;;;3.78;100.00
68712;BME280;55690;51.566;19.198;2024-02-14T02:31:52;102230.13;;;3.65;100.00
68712;BME280;55690;51.566;19.198;2024-02-14T02:35:59;102242.01;;;3.54;100.00
68712;BME280;55690;51.566;19.198;2024-02-14T02:40:05;102239.58;;;3.43;100.00
68712;BME280;55690;51.566;19.198;2024-02-14T02:44:10;102252.44;;;3.26;100.00
68712;BME280;55690;51.566;19.198;2024-02-14T02:48:17;102257.98;;;3.17;100.00
68712;BME280;55690;51.566;19.198;2024-02-14T02:52:23;102252.02;;;3.03;100.00
68712;BME280;55690;51.566;19.198;2024-02-14T02:56:29;102256.38;;;3.07;100.00
68712;BME280;55690;51.566;19.198;2024-02-14T03:00:35;102255.75;;;2.94;100.00
68712;BME280;55690;51.566;19.198;2024-02-14T03:04:47;102263.83;;;2.92;100.00
68712;BME280;55690;51.566;19.198;2024-02-14T03:08:49;102259.53;;;2.82;100.00
68712;BME280;55690;51.566;19.198;2024-02-14T03:12:54;102265.96;;;2.72;100.00
68712;BME280;55690;51.566;19.198;2024-02-14T03:17:00;102265.08;;;2.72;100.00
68712;BME280;55690;51.566;19.198;2024-02-14T03:21:06;102261.64;;;2.63;100.00
68712;BME280;55690;51.566;19.198;2024-02-14T03:25:15;102261.91;;;2.48;100.00
68712;BME280;55690;51.566;19.198;2024-02-14T03:29:22;102263.78;;;2.43;100.00
68712;BME280;55690;51.566;19.198;2024-02-14T03:33:25;102268.29;;;2.41;100.00
68712;BME280;55690;51.566;19.198;2024-02-14T03:37:32;102270.08;;;2.41;100.00
68712;BME280;55690;51.566;19.198;2024-02-14T03:41:37;102270.22;;;2.31;100.00
68712;BME280;55690;51.566;19.198;2024-02-14T03:45:43;102277.40;;;2.29;100.00
68712;BME280;55690;51.566;19.198;2024-02-14T03:49:49;102280.20;;;2.20;100.00
68712;BME280;55690;51.566;19.198;2024-02-14T03:53:55;102280.26;;;2.17;100.00
68712;BME280;55690;51.566;19.198;2024-02-14T03:58:02;102283.91;;;2.13;100.00
68712;BME280;55690;51.566;19.198;2024-02-14T04:02:08;102283.98;;;2.09;100.00
68712;BME280;55690;51.566;19.198;2024-02-14T04:06:14;102284.02;;;2.06;100.00
68712;BME280;55690;51.566;19.198;2024-02-14T04:10:20;102290.30;;;2.03;100.00
68712;BME280;55690;51.566;19.198;2024-02-14T04:14:26;102292.90;;;2.09;100.00
68712;BME280;55690;51.566;19.198;2024-02-14T04:18:33;102296.53;;;2.05;100.00
68712;BME280;55690;51.566;19.198;2024-02-14T04:22:39;102299.25;;;2.02;100.00
68712;BME280;55690;51.566;19.198;2024-02-14T04:26:45;102298.42;;;1.97;100.00
68712;BME280;55690;51.566;19.198;2024-02-14T04:30:51;102292.97;;;2.05;100.00
68712;BME280;55690;51.566;19.198;2024-02-14T04:34:58;102295.66;;;2.03;100.00
68712;BME280;55690;51.566;19.198;2024-02-14T04:39:04;102286.64;;;2.10;100.00
68712;BME280;55690;51.566;19.198;2024-02-14T04:43:10;102293.85;;;2.05;100.00
68712;BME280;55690;51.566;19.198;2024-02-14T04:47:16;102294.85;;;1.96;100.00
68712;BME280;55690;51.566;19.198;2024-02-14T04:51:22;102294.31;;;1.72;100.00
68712;BME280;55690;51.566;19.198;2024-02-14T04:55:28;102297.75;;;1.80;100.00
68712;BME280;55690;51.566;19.198;2024-02-14T04:59:35;102297.07;;;1.65;100.00
68712;BME280;55690;51.566;19.198;2024-02-14T05:03:41;102302.22;;;1.79;100.00
68712;BME280;55690;51.566;19.198;2024-02-14T05:07:47;102303.89;;;1.89;100.00
68712;BME280;55690;51.566;19.198;2024-02-14T05:11:53;102302.09;;;1.90;100.00
68712;BME280;55690;51.566;19.198;2024-02-14T05:16:03;102300.41;;;1.81;100.00
68712;BME280;55690;51.566;19.198;2024-02-14T05:20:11;102306.63;;;1.83;100.00
68712;BME280;55690;51.566;19.198;2024-02-14T05:24:13;102303.89;;;1.89;100.00
68712;BME280;55690;51.566;19.198;2024-02-14T05:28:18;102303.04;;;1.86;100.00
68712;BME280;55690;51.566;19.198;2024-02-14T05:32:24;102313.77;;;1.84;100.00
68712;BME280;55690;51.566;19.198;2024-02-14T05:36:30;102309.35;;;1.80;100.00
68712;BME280;55690;51.566;19.198;2024-02-14T05:40:36;102314.77;;;1.76;100.00
68712;BME280;55690;51.566;19.198;2024-02-14T05:44:42;102320.27;;;1.65;100.00
68712;BME280;55690;51.566;19.198;2024-02-14T05:48:49;102325.64;;;1.65;100.00
68712;BME280;55690;51.566;19.198;2024-02-14T05:52:55;102323.81;;;1.69;100.00
68712;BME280;55690;51.566;19.198;2024-02-14T05:57:01;102333.62;;;1.70;100.00
68712;BME280;55690;51.566;19.198;2024-02-14T06:01:09;102339.95;;;1.62;100.00
68712;BME280;55690;51.566;19.198;2024-02-14T06:05:14;102336.63;;;1.39;100.00
68712;BME280;55690;51.566;19.198;2024-02-14T06:09:20;102334.00;;;1.33;100.00
68712;BME280;55690;51.566;19.198;2024-02-14T06:13:26;102334.92;;;1.30;100.00
68712;BME280;55690;51.566;19.198;2024-02-14T06:17:32;102328.74;;;1.27;100.00
68712;BME280;55690;51.566;19.198;2024-02-14T06:21:38;102333.23;;;1.25;100.00
68712;BME280;55690;51.566;19.198;2024-02-14T06:25:44;102337.58;;;1.32;100.00
68712;BME280;55690;51.566;19.198;2024-02-14T06:29:50;102337.66;;;1.27;100.00
68712;BME280;55690;51.566;19.198;2024-02-14T06:33:57;102334.98;;;1.29;100.00
68712;BME280;55690;51.566;19.198;2024-02-14T06:38:03;102338.60;;;1.22;100.00
68712;BME280;55690;51.566;19.198;2024-02-14T06:42:09;102332.32;;;1.26;100.00
68712;BME280;55690;51.566;19.198;2024-02-14T06:46:15;102332.76;;;1.66;100.00
68712;BME280;55690;51.566;19.198;2024-02-14T06:50:21;102326.21;;;1.88;100.00
68712;BME280;55690;51.566;19.198;2024-02-14T06:54:28;102329.57;;;2.06;100.00
68712;BME280;55690;51.566;19.198;2024-02-14T06:58:34;102302.55;;;2.19;100.00
68712;BME280;55690;51.566;19.198;2024-02-14T07:02:40;102333.36;;;2.52;100.00
68712;BME280;55690;51.566;19.198;2024-02-14T07:06:46;102336.13;;;2.46;100.00
68712;BME280;55690;51.566;19.198;2024-02-14T07:10:53;102330.91;;;2.36;100.00
68712;BME280;55690;51.566;19.198;2024-02-14T07:15:00;102328.17;;;2.40;100.00
68712;BME280;55690;51.566;19.198;2024-02-14T07:19:05;102334.54;;;2.31;100.00
68712;BME280;55690;51.566;19.198;2024-02-14T07:23:11;102339.85;;;2.36;100.00
68712;BME280;55690;51.566;19.198;2024-02-14T07:27:17;102334.27;;;2.51;100.00
68712;BME280;55690;51.566;19.198;2024-02-14T07:31:24;102341.16;;;2.66;100.00
68712;BME280;55690;51.566;19.198;2024-02-14T07:35:30;102342.79;;;2.76;100.00
68712;BME280;55690;51.566;19.198;2024-02-14T07:39:36;102339.88;;;2.90;100.00
68712;BME280;55690;51.566;19.198;2024-02-14T07:43:42;102336.84;;;3.10;100.00
68712;BME280;55690;51.566;19.198;2024-02-14T07:47:51;102342.73;;;3.31;100.00
68712;BME280;55690;51.566;19.198;2024-02-14T07:51:54;102333.30;;;3.55;100.00
68712;BME280;55690;51.566;19.198;2024-02-14T07:56:00;102334.86;;;3.67;100.00
68712;BME280;55690;51.566;19.198;2024-02-14T08:00:08;102333.27;;;4.00;100.00
68712;BME280;55690;51.566;19.198;2024-02-14T08:04:13;102332.95;;;4.15;100.00
68712;BME280;55690;51.566;19.198;2024-02-14T08:08:19;102320.55;;;4.47;100.00
68712;BME280;55690;51.566;19.198;2024-02-14T08:12:25;102323.66;;;4.67;100.00
68712;BME280;55690;51.566;19.198;2024-02-14T08:16:31;102320.12;;;5.00;100.00
68712;BME280;55690;51.566;19.198;2024-02-14T08:20:38;102310.53;;;5.23;100.00
68712;BME280;55690;51.566;19.198;2024-02-14T08:24:44;102310.66;;;5.82;100.00
68712;BME280;55690;51.566;19.198;2024-02-14T08:28:50;102312.27;;;5.58;100.00
68712;BME280;55690;51.566;19.198;2024-02-14T08:32:56;102313.97;;;5.93;100.00
68712;BME280;55690;51.566;19.198;2024-02-14T08:37:02;102303.10;;;5.96;99.52
68712;BME280;55690;51.566;19.198;2024-02-14T08:41:08;102299.48;;;6.25;99.11
68712;BME280;55690;51.566;19.198;2024-02-14T08:45:15;102305.31;;;6.41;99.46
68712;BME280;55690;51.566;19.198;2024-02-14T08:49:21;102300.46;;;6.50;98.01
68712;BME280;55690;51.566;19.198;2024-02-14T08:53:27;102303.16;;;6.78;98.03
68712;BME280;55690;51.566;19.198;2024-02-14T08:57:35;102300.21;;;6.86;97.29
68712;BME280;55690;51.566;19.198;2024-02-14T09:01:41;102296.25;;;6.70;96.60
68712;BME280;55690;51.566;19.198;2024-02-14T09:05:48;102290.34;;;6.85;96.14
68712;BME280;55690;51.566;19.198;2024-02-14T09:09:58;102294.18;;;6.78;96.34
68712;BME280;55690;51.566;19.198;2024-02-14T09:14:04;102293.16;;;6.54;96.32
68712;BME280;55690;51.566;19.198;2024-02-14T09:18:10;102285.70;;;6.62;96.65
68712;BME280;55690;51.566;19.198;2024-02-14T09:22:16;102292.76;;;6.66;97.00
68712;BME280;55690;51.566;19.198;2024-02-14T09:26:23;102299.38;;;6.84;96.55
68712;BME280;55690;51.566;19.198;2024-02-14T09:30:29;102296.25;;;6.70;96.86
68712;BME280;55690;51.566;19.198;2024-02-14T09:34:35;102292.46;;;6.75;95.48
68712;BME280;55690;51.566;19.198;2024-02-14T09:38:42;102294.76;;;6.87;95.36
68712;BME280;55690;51.566;19.198;2024-02-14T09:42:56;102285.74;;;7.13;96.10
68712;BME280;55690;51.566;19.198;2024-02-14T09:47:00;102289.22;;;7.17;94.59
68712;BME280;55690;51.566;19.198;2024-02-14T09:51:02;102294.36;;;7.24;93.65
68712;BME280;55690;51.566;19.198;2024-02-14T09:55:07;102284.91;;;7.61;93.40
68712;BME280;55690;51.566;19.198;2024-02-14T09:59:12;102294.55;;;7.43;91.11
68712;BME280;55690;51.566;19.198;2024-02-14T10:03:18;102279.61;;;7.81;92.39
68712;BME280;55690;51.566;19.198;2024-02-14T10:07:25;102287.16;;;7.73;90.48
68712;BME280;55690;51.566;19.198;2024-02-14T10:11:31;102279.91;;;7.97;91.83
68712;BME280;55690;51.566;19.198;2024-02-14T10:15:37;102272.38;;;7.82;89.96
68712;BME280;55690;51.566;19.198;2024-02-14T10:23:32;102265.30;;;7.79;90.55
68712;BME280;55690;51.566;19.198;2024-02-14T10:27:36;102256.48;;;7.74;89.33
68712;BME280;55690;51.566;19.198;2024-02-14T10:31:40;102249.19;;;7.76;90.24
68712;BME280;55690;51.566;19.198;2024-02-14T10:35:45;102252.77;;;7.77;89.91
68712;BME280;55690;51.566;19.198;2024-02-14T10:39:52;102243.84;;;7.75;90.03
68712;BME280;55690;51.566;19.198;2024-02-14T10:43:57;102243.35;;;7.63;89.24
68712;BME280;55690;51.566;19.198;2024-02-14T10:48:11;102238.06;;;7.60;88.57
68712;BME280;55690;51.566;19.198;2024-02-14T10:52:15;102233.32;;;7.67;87.75
68712;BME280;55690;51.566;19.198;2024-02-14T10:56:18;102230.26;;;7.76;87.31
68712;BME280;55690;51.566;19.198;2024-02-14T11:00:22;102228.59;;;7.95;87.38
68712;BME280;55690;51.566;19.198;2024-02-14T11:04:29;102234.98;;;8.16;87.98
68712;BME280;55690;51.566;19.198;2024-02-14T11:08:35;102221.63;;;8.12;85.13
68712;BME280;55690;51.566;19.198;2024-02-14T11:12:40;102196.39;;;8.11;86.59
68712;BME280;55690;51.566;19.198;2024-02-14T11:16:46;102203.98;;;8.23;84.35
68712;BME280;55690;51.566;19.198;2024-02-14T11:20:53;102212.65;;;8.33;84.52
68712;BME280;55690;51.566;19.198;2024-02-14T11:25:07;102210.26;;;8.47;84.16
68712;BME280;55690;51.566;19.198;2024-02-14T11:29:16;102204.09;;;8.44;84.30
68712;BME280;55690;51.566;19.198;2024-02-14T11:33:24;102195.53;;;8.54;85.55
68712;BME280;55690;51.566;19.198;2024-02-14T11:37:28;102188.48;;;8.50;84.51
68712;BME280;55690;51.566;19.198;2024-02-14T11:41:35;102187.66;;;8.48;83.76
68712;BME280;55690;51.566;19.198;2024-02-14T11:45:36;102194.09;;;8.46;84.04
68712;BME280;55690;51.566;19.198;2024-02-14T11:49:42;102177.95;;;8.64;84.74
68712;BME280;55690;51.566;19.198;2024-02-14T11:53:46;102173.12;;;8.51;84.96
68712;BME280;55690;51.566;19.198;2024-02-14T11:57:48;102175.23;;;8.64;84.05
68712;BME280;55690;51.566;19.198;2024-02-14T12:01:54;102178.66;;;8.48;82.24
68712;BME280;55690;51.566;19.198;2024-02-14T12:06:01;102163.23;;;8.50;82.00
68712;BME280;55690;51.566;19.198;2024-02-14T12:10:09;102167.17;;;8.63;81.98
68712;BME280;55690;51.566;19.198;2024-02-14T12:14:13;102171.28;;;8.72;82.39
68712;BME280;55690;51.566;19.198;2024-02-14T12:18:20;102164.18;;;8.69;82.23
68712;BME280;55690;51.566;19.198;2024-02-14T12:22:25;102156.67;;;8.76;80.86
68712;BME280;55690;51.566;19.198;2024-02-14T12:26:31;102152.33;;;8.72;80.98
68712;BME280;55690;51.566;19.198;2024-02-14T12:30:44;102151.26;;;8.76;81.11
68712;BME280;55690;51.566;19.198;2024-02-14T12:34:56;102151.72;;;8.45;79.66
68712;BME280;55690;51.566;19.198;2024-02-14T12:39:02;102141.84;;;8.44;79.54
68712;BME280;55690;51.566;19.198;2024-02-14T12:43:04;102142.31;;;8.74;80.75
68712;BME280;55690;51.566;19.198;2024-02-14T12:47:06;102136.42;;;8.84;80.40
68712;BME280;55690;51.566;19.198;2024-02-14T12:51:08;102134.73;;;8.82;80.41
68712;BME280;55690;51.566;19.198;2024-02-14T12:55:14;102130.88;;;8.87;80.70
68712;BME280;55690;51.566;19.198;2024-02-14T12:59:21;102133.66;;;8.86;81.12
68712;BME280;55690;51.566;19.198;2024-02-14T13:03:27;102131.48;;;8.94;81.18
68712;BME280;55690;51.566;19.198;2024-02-14T13:07:34;102125.46;;;8.67;79.27
68712;BME280;55690;51.566;19.198;2024-02-14T13:11:40;102126.02;;;8.55;79.25
68712;BME280;55690;51.566;19.198;2024-02-14T13:15:45;102124.12;;;8.57;79.57
68712;BME280;55690;51.566;19.198;2024-02-14T13:19:52;102120.27;;;8.62;80.88
68712;BME280;55690;51.566;19.198;2024-02-14T13:23:58;102118.44;;;8.63;80.00
68712;BME280;55690;51.566;19.198;2024-02-14T13:28:05;102121.40;;;8.77;80.57
68712;BME280;55690;51.566;19.198;2024-02-14T13:32:11;102114.28;;;8.75;80.71
68712;BME280;55690;51.566;19.198;2024-02-14T13:36:16;102112.93;;;8.85;79.35
68712;BME280;55690;51.566;19.198;2024-02-14T13:40:22;102111.10;;;8.85;79.85
68712;BME280;55690;51.566;19.198;2024-02-14T13:44:29;102102.97;;;8.85;78.89
68712;BME280;55690;51.566;19.198;2024-02-14T13:48:35;102096.61;;;8.86;78.79
68712;BME280;55690;51.566;19.198;2024-02-14T13:52:41;102090.71;;;8.97;80.44
68712;BME280;55690;51.566;19.198;2024-02-14T13:56:47;102103.72;;;8.89;80.51
68712;BME280;55690;51.566;19.198;2024-02-14T14:00:53;102094.23;;;8.79;80.06
68712;BME280;55690;51.566;19.198;2024-02-14T14:04:59;102093.91;;;8.86;80.90
68712;BME280;55690;51.566;19.198;2024-02-14T14:09:06;102091.50;;;8.60;79.82
68712;BME280;55690;51.566;19.198;2024-02-14T14:13:12;102082.02;;;8.50;79.57
68712;BME280;55690;51.566;19.198;2024-02-14T14:17:18;102095.19;;;8.78;80.60
68712;BME280;55690;51.566;19.198;2024-02-14T14:21:24;102098.37;;;8.67;79.90
68712;BME280;55690;51.566;19.198;2024-02-14T14:25:30;102101.18;;;8.65;80.69
68712;BME280;55690;51.566;19.198;2024-02-14T14:29:36;102104.62;;;8.49;80.26
68712;BME280;55690;51.566;19.198;2024-02-14T14:33:43;102109.55;;;8.39;81.20
68712;BME280;55690;51.566;19.198;2024-02-14T14:37:50;102110.36;;;8.41;81.41
68712;BME280;55690;51.566;19.198;2024-02-14T14:41:55;102107.26;;;8.28;80.66
68712;BME280;55690;51.566;19.198;2024-02-14T14:46:01;102102.30;;;8.40;81.92
68712;BME280;55690;51.566;19.198;2024-02-14T14:50:07;102108.87;;;8.34;82.06
68712;BME280;55690;51.566;19.198;2024-02-14T14:54:14;102102.60;;;8.32;82.59
68712;BME280;55690;51.566;19.198;2024-02-14T14:58:20;102088.74;;;8.19;81.85
68712;BME280;55690;51.566;19.198;2024-02-14T15:02:26;102080.33;;;8.25;83.19
68712;BME280;55690;51.566;19.198;2024-02-14T15:06:32;102094.55;;;8.30;82.80
68712;BME280;55690;51.566;19.198;2024-02-14T15:10:38;102092.79;;;8.29;83.21
68712;BME280;55690;51.566;19.198;2024-02-14T15:14:45;102087.37;;;8.29;82.79
68712;BME280;55690;51.566;19.198;2024-02-14T15:18:51;102075.07;;;8.22;82.84
68712;BME280;55690;51.566;19.198;2024-02-14T15:22:57;102079.74;;;8.19;82.72
68712;BME280;55690;51.566;19.198;2024-02-14T15:27:03;102077.49;;;8.08;82.54
68712;BME280;55690;51.566;19.198;2024-02-14T15:31:09;102075.98;;;8.01;82.58
68712;BME280;55690;51.566;19.198;2024-02-14T15:35:22;102075.48;;;7.91;82.75
68712;BME280;55690;51.566;19.198;2024-02-14T15:39:24;102076.55;;;7.87;83.51
68712;BME280;55690;51.566;19.198;2024-02-14T15:43:28;102073.91;;;7.86;84.07
68712;BME280;55690;51.566;19.198;2024-02-14T15:47:34;102073.49;;;7.75;84.19
68712;BME280;55690;51.566;19.198;2024-02-14T15:51:40;102081.03;;;7.66;84.45
68712;BME280;55690;51.566;19.198;2024-02-14T15:55:46;102092.55;;;7.72;85.05
68712;BME280;55690;51.566;19.198;2024-02-14T15:59:52;102083.48;;;7.73;85.51
68712;BME280;55690;51.566;19.198;2024-02-14T16:03:58;102078.81;;;7.54;85.52
68712;BME280;55690;51.566;19.198;2024-02-14T16:08:05;102088.80;;;7.52;86.30
68712;BME280;55690;51.566;19.198;2024-02-14T16:12:11;102087.29;;;7.45;87.05
68712;BME280;55690;51.566;19.198;2024-02-14T16:16:17;102102.24;;;7.32;87.23
68712;BME280;55690;51.566;19.198;2024-02-14T16:20:23;102095.07;;;7.31;87.25
68712;BME280;55690;51.566;19.198;2024-02-14T16:24:29;102103.48;;;7.23;88.44
68712;BME280;55690;51.566;19.198;2024-02-14T16:28:36;102107.23;;;7.19;89.27
68712;BME280;55690;51.566;19.198;2024-02-14T16:32:42;102119.85;;;7.19;88.04
68712;BME280;55690;51.566;19.198;2024-02-14T16:36:48;102132.47;;;7.18;88.49
68712;BME280;55690;51.566;19.198;2024-02-14T16:40:54;102136.29;;;7.13;89.35
68712;BME280;55690;51.566;19.198;2024-02-14T16:45:00;102138.22;;;7.09;90.37
68712;BME280;55690;51.566;19.198;2024-02-14T16:49:06;102145.72;;;7.01;91.43
68712;BME280;55690;51.566;19.198;2024-02-14T16:53:13;102146.08;;;6.92;92.13
68712;BME280;55690;51.566;19.198;2024-02-14T16:57:19;102152.37;;;6.92;92.04
68712;BME280;55690;51.566;19.198;2024-02-14T17:01:25;102150.82;;;6.85;92.29
68712;BME280;55690;51.566;19.198;2024-02-14T17:05:31;102162.66;;;6.81;90.50
68712;BME280;55690;51.566;19.198;2024-02-14T17:09:38;102171.54;;;6.85;91.86
68712;BME280;55690;51.566;19.198;2024-02-14T17:13:44;102183.22;;;6.85;92.21
68712;BME280;55690;51.566;19.198;2024-02-14T17:17:50;102176.22;;;6.80;92.50
68712;BME280;55690;51.566;19.198;2024-02-14T17:21:56;102173.68;;;6.75;93.61
68712;BME280;55690;51.566;19.198;2024-02-14T17:26:02;102171.91;;;6.74;94.84
68712;BME280;55690;51.566;19.198;2024-02-14T17:30:09;102170.20;;;6.72;95.17
68712;BME280;55690;51.566;19.198;2024-02-14T17:34:14;102172.85;;;6.73;95.01
68712;BME280;55690;51.566;19.198;2024-02-14T17:38:20;102179.13;;;6.74;95.09
68712;BME280;55690;51.566;19.198;2024-02-14T17:42:27;102177.15;;;6.79;94.74
68712;BME280;55690;51.566;19.198;2024-02-14T17:46:33;102181.88;;;6.72;94.98
68712;BME280;55690;51.566;19.198;2024-02-14T17:50:39;102181.94;;;6.71;95.60
68712;BME280;55690;51.566;19.198;2024-02-14T17:54:45;102179.13;;;6.74;96.30
68712;BME280;55690;51.566;19.198;2024-02-14T17:58:51;102176.38;;;6.75;96.28
68712;BME280;55690;51.566;19.198;2024-02-14T18:02:58;102175.76;;;6.67;95.28
68712;BME280;55690;51.566;19.198;2024-02-14T18:07:04;102182.04;;;6.67;95.42
68712;BME280;55690;51.566;19.198;2024-02-14T18:11:10;102174.93;;;6.65;95.00
68712;BME280;55690;51.566;19.198;2024-02-14T18:15:16;102171.51;;;6.60;94.03
68712;BME280;55690;51.566;19.198;2024-02-14T18:19:23;102172.29;;;6.63;93.42
68712;BME280;55690;51.566;19.198;2024-02-14T18:28:11;102177.52;;;6.68;94.39
68712;BME280;55690;51.566;19.198;2024-02-14T18:32:36;102172.02;;;6.71;94.77
68712;BME280;55690;51.566;19.198;2024-02-14T18:41:30;102166.84;;;6.65;94.77
68712;BME280;55690;51.566;19.198;2024-02-14T18:45:52;102173.73;;;6.74;94.59
68712;BME280;55690;51.566;19.198;2024-02-14T18:50:04;102171.97;;;6.73;93.96
68712;BME280;55690;51.566;19.198;2024-02-14T18:54:11;102180.17;;;6.70;92.79
68712;BME280;55690;51.566;19.198;2024-02-14T18:58:15;102182.71;;;6.74;92.78
68712;BME280;55690;51.566;19.198;2024-02-14T19:02:17;102176.63;;;6.67;92.01
68712;BME280;55690;51.566;19.198;2024-02-14T19:06:18;102180.06;;;6.73;92.47
68712;BME280;55690;51.566;19.198;2024-02-14T19:10:20;102185.30;;;6.77;92.81
68712;BME280;55690;51.566;19.198;2024-02-14T19:14:21;102180.73;;;6.79;93.57
68712;BME280;55690;51.566;19.198;2024-02-14T19:18:25;102184.63;;;6.71;95.53
68712;BME280;55690;51.566;19.198;2024-02-14T19:22:27;102175.55;;;6.73;95.77
68712;BME280;55690;51.566;19.198;2024-02-14T19:26:28;102175.13;;;6.59;94.76
68712;BME280;55690;51.566;19.198;2024-02-14T19:30:30;102179.29;;;6.69;94.75
68712;BME280;55690;51.566;19.198;2024-02-14T19:34:32;102178.56;;;6.64;95.25
68712;BME280;55690;51.566;19.198;2024-02-14T19:38:33;102180.28;;;6.66;96.72
68712;BME280;55690;51.566;19.198;2024-02-14T19:42:35;102181.57;;;6.55;95.28
68712;BME280;55690;51.566;19.198;2024-02-14T19:46:38;102173.38;;;6.58;96.14
68712;BME280;55690;51.566;19.198;2024-02-14T19:50:41;102168.54;;;6.43;95.54
68712;BME280;55690;51.566;19.198;2024-02-14T19:54:43;102165.78;;;6.44;95.66
68712;BME280;55690;51.566;19.198;2024-02-14T19:58:45;102166.62;;;6.46;96.20
68712;BME280;55690;51.566;19.198;2024-02-14T20:02:46;102158.22;;;6.54;96.40
68712;BME280;55690;51.566;19.198;2024-02-14T20:06:49;102160.77;;;6.58;96.38
68712;BME280;55690;51.566;19.198;2024-02-14T20:10:56;102150.07;;;6.55;96.31
68712;BME280;55690;51.566;19.198;2024-02-14T20:15:00;102161.75;;;6.56;97.19
68712;BME280;55690;51.566;19.198;2024-02-14T20:19:02;102156.24;;;6.59;96.49
68712;BME280;55690;51.566;19.198;2024-02-14T20:23:04;102139.44;;;6.51;96.26
68712;BME280;55690;51.566;19.198;2024-02-14T20:27:05;102143.20;;;6.47;96.56
68712;BME280;55690;51.566;19.198;2024-02-14T20:31:07;102145.71;;;6.51;96.20
68712;BME280;55690;51.566;19.198;2024-02-14T20:35:10;102149.48;;;6.47;96.20
68712;BME280;55690;51.566;19.198;2024-02-14T20:39:15;102150.31;;;6.49;96.24
68712;BME280;55690;51.566;19.198;2024-02-14T20:43:17;102147.37;;;6.55;96.47
68712;BME280;55690;51.566;19.198;2024-02-14T20:47:18;102148.37;;;6.53;96.75
68712;BME280;55690;51.566;19.198;2024-02-14T20:51:21;102141.98;;;6.55;96.19
68712;BME280;55690;51.566;19.198;2024-02-14T20:55:27;102142.95;;;6.53;96.44
68712;BME280;55690;51.566;19.198;2024-02-14T20:59:34;102143.15;;;6.48;96.51
68712;BME280;55690;51.566;19.198;2024-02-14T21:03:40;102139.07;;;6.61;96.79
68712;BME280;55690;51.566;19.198;2024-02-14T21:07:46;102139.33;;;6.54;96.52
68712;BME280;55690;51.566;19.198;2024-02-14T21:11:52;102138.55;;;6.50;97.34
68712;BME280;55690;51.566;19.198;2024-02-14T21:15:58;102145.55;;;6.56;97.47
68712;BME280;55690;51.566;19.198;2024-02-14T21:20:05;102139.13;;;6.60;97.54
68712;BME280;55690;51.566;19.198;2024-02-14T21:24:11;102141.25;;;6.50;97.54
68712;BME280;55690;51.566;19.198;2024-02-14T21:28:17;102151.01;;;6.54;97.86